createdAt,value
2019-06-26T04:01:14.776Z,22.40
2019-06-26T04:02:20.445Z,22.50
2019-06-26T04:03:25.507Z,22.60
2019-06-26T04:04:31.096Z,22.80
2019-06-26T04:05:36.160Z,22.90
2019-06-26T04:06:41.844Z,23.10
2019-06-26T04:07:46.943Z,23.20
2019-06-26T04:08:52.670Z,23.40
2019-06-26T04:09:57.813Z,23.60
2019-06-26T04:11:04.558Z,23.80
2019-06-26T04:12:09.675Z,24.00
2019-06-26T04:13:15.376Z,24.20
2019-06-26T04:14:20.471Z,24.30
2019-06-26T04:15:40.788Z,24.50
2019-06-26T04:16:33.013Z,24.70
2019-06-26T04:17:38.678Z,24.90
2019-06-26T04:18:43.731Z,25.20
2019-06-26T04:19:49.465Z,25.40
2019-06-26T04:20:54.524Z,25.60
2019-06-26T04:22:00.232Z,25.90
2019-06-26T04:23:05.244Z,26.10
2019-06-26T04:24:10.906Z,26.30
2019-06-26T04:25:16.128Z,26.50
2019-06-26T04:26:21.821Z,26.80
2019-06-26T04:27:27.068Z,27.00
2019-06-26T04:28:32.894Z,27.30
2019-06-26T04:29:38.050Z,27.50
2019-06-26T04:30:43.834Z,27.70
2019-06-26T04:31:48.938Z,28.00
2019-06-26T04:32:54.592Z,28.20
2019-06-26T04:33:59.617Z,28.50
2019-06-26T04:35:05.392Z,28.70
2019-06-26T04:36:10.420Z,29.00
2019-06-26T04:37:16.129Z,29.30
2019-06-26T04:38:21.261Z,29.50
2019-06-26T04:39:26.975Z,29.80
2019-06-26T04:40:32.149Z,30.10
2019-06-26T04:41:37.920Z,30.40
2019-06-26T04:42:42.952Z,30.60
2019-06-26T04:43:48.611Z,31.00
2019-06-26T04:44:53.805Z,31.20
2019-06-26T04:45:59.479Z,31.50
2019-06-26T04:47:04.608Z,31.70
2019-06-26T04:48:10.313Z,32.00
2019-06-26T04:49:15.400Z,32.30
2019-06-26T04:50:21.912Z,32.60
2019-06-26T04:51:27.044Z,32.90
2019-06-26T04:52:32.662Z,33.20
2019-06-26T04:53:37.852Z,33.50
2019-06-26T04:54:43.551Z,33.70
2019-06-26T04:55:48.615Z,33.90
2019-06-26T04:56:54.351Z,34.10
2019-06-26T04:57:59.435Z,34.40
2019-06-26T04:59:05.025Z,34.70
2019-06-26T05:00:11.521Z,35.00
2019-06-26T05:01:17.210Z,35.30
2019-06-26T05:02:22.288Z,35.60
2019-06-26T05:03:27.973Z,35.90
2019-06-26T05:04:32.960Z,36.10
2019-06-26T05:05:40.152Z,36.40
2019-06-26T05:06:45.385Z,36.70
2019-06-26T05:07:53.569Z,36.90
2019-06-26T05:08:57.691Z,37.20
2019-06-26T05:10:03.381Z,37.40
2019-06-26T05:11:08.417Z,37.60
2019-06-26T05:12:14.050Z,37.80
2019-06-26T05:13:19.189Z,38.10
2019-06-26T05:14:24.859Z,38.40
2019-06-26T05:15:29.965Z,38.60
2019-06-26T05:16:35.551Z,38.90
2019-06-26T05:17:40.816Z,39.20
2019-06-26T05:18:46.436Z,39.60
2019-06-26T05:19:51.533Z,39.70
2019-06-26T05:20:57.243Z,39.80
2019-06-26T05:22:02.326Z,40.10
2019-06-26T05:23:07.930Z,40.10
2019-06-26T05:24:14.305Z,39.90
2019-06-26T05:25:20.055Z,40.10
2019-06-26T05:26:25.037Z,40.30
2019-06-26T05:27:30.739Z,40.40
2019-06-26T05:28:36.918Z,40.50
2019-06-26T05:29:42.540Z,40.60
2019-06-26T05:30:47.618Z,40.80
2019-06-26T05:31:53.363Z,41.00
2019-06-26T05:32:58.380Z,41.10
2019-06-26T05:34:04.168Z,41.40
2019-06-26T05:35:10.678Z,41.70
2019-06-26T05:36:16.525Z,41.80
2019-06-26T05:37:21.568Z,42.00
2019-06-26T05:38:27.382Z,42.20
2019-06-26T05:39:32.472Z,42.40
2019-06-26T05:40:38.084Z,42.50
2019-06-26T05:41:43.095Z,42.80
2019-06-26T05:42:48.824Z,43.00
2019-06-26T05:43:54.072Z,43.30
2019-06-26T05:44:59.749Z,43.50
2019-06-26T05:46:04.942Z,43.60
2019-06-26T05:47:10.653Z,43.80
2019-06-26T05:48:16.057Z,43.90
2019-06-26T05:49:22.613Z,44.00
2019-06-26T05:50:27.947Z,44.10
2019-06-26T05:51:33.616Z,44.20
2019-06-26T05:52:42.218Z,44.20
2019-06-26T05:53:46.148Z,44.20
2019-06-26T05:54:51.272Z,44.00
2019-06-26T05:55:56.867Z,44.30
2019-06-26T05:57:01.913Z,44.40
2019-06-26T05:58:08.012Z,44.70
2019-06-26T05:59:13.014Z,44.90
2019-06-26T06:00:19.216Z,45.10
2019-06-26T06:01:24.282Z,45.20
2019-06-26T06:02:29.918Z,45.40
2019-06-26T06:03:34.930Z,45.70
2019-06-26T06:04:41.780Z,46.00
2019-06-26T06:05:46.888Z,46.50
2019-06-26T06:06:52.649Z,47.00
2019-06-26T06:07:57.799Z,47.50
2019-06-26T06:09:03.468Z,48.00
2019-06-26T06:10:08.783Z,48.40
2019-06-26T06:11:14.746Z,48.80
2019-06-26T06:12:19.825Z,49.20
2019-06-26T06:13:25.471Z,49.50
2019-06-26T06:14:30.481Z,49.80
2019-06-26T06:15:36.146Z,50.10
2019-06-26T06:16:47.342Z,50.20
2019-06-26T06:17:48.664Z,50.40
2019-06-26T06:18:53.725Z,50.70
2019-06-26T06:19:59.396Z,51.00
2019-06-26T06:21:04.540Z,51.30
2019-06-26T06:22:10.206Z,51.50
2019-06-26T06:23:15.369Z,51.60
2019-06-26T06:24:20.992Z,51.70
2019-06-26T06:25:26.031Z,51.90
2019-06-26T06:26:31.612Z,52.00
2019-06-26T06:27:36.728Z,52.30
2019-06-26T06:28:42.356Z,52.60
2019-06-26T06:29:47.395Z,52.80
2019-06-26T06:30:53.121Z,52.90
2019-06-26T06:31:58.186Z,52.80
2019-06-26T06:33:03.820Z,52.50
2019-06-26T06:34:08.839Z,52.40
2019-06-26T06:35:14.524Z,52.30
2019-06-26T06:36:19.552Z,52.40
2019-06-26T06:37:25.144Z,52.50
2019-06-26T06:38:30.217Z,52.90
2019-06-26T06:39:35.826Z,53.20
2019-06-26T06:40:40.963Z,53.50
2019-06-26T06:41:46.652Z,54.00
2019-06-26T06:42:51.832Z,54.20
2019-06-26T06:43:57.462Z,54.50
2019-06-26T06:45:02.485Z,54.70
2019-06-26T06:46:08.179Z,54.60
2019-06-26T06:47:14.301Z,54.60
2019-06-26T06:48:20.271Z,54.70
2019-06-26T06:49:25.321Z,54.70
2019-06-26T06:50:30.976Z,54.00
2019-06-26T06:51:36.084Z,53.80
2019-06-26T06:52:42.696Z,54.10
2019-06-26T06:53:47.701Z,54.50
2019-06-26T06:54:53.305Z,54.80
2019-06-26T06:55:58.400Z,54.40
2019-06-26T06:57:04.080Z,54.70
2019-06-26T06:58:09.174Z,54.90
2019-06-26T06:59:15.858Z,55.20
2019-06-26T07:00:21.173Z,55.00
2019-06-26T07:01:26.783Z,54.90
2019-06-26T07:02:31.825Z,55.10
2019-06-26T07:03:37.504Z,55.20
2019-06-26T07:04:42.611Z,55.20
2019-06-26T07:05:48.285Z,55.40
2019-06-26T07:06:53.400Z,55.60
2019-06-26T07:07:59.035Z,55.90
2019-06-26T07:09:05.193Z,56.20
2019-06-26T07:10:12.301Z,56.50
2019-06-26T07:11:17.397Z,56.80
2019-06-26T07:12:23.049Z,57.00
2019-06-26T07:13:28.293Z,57.30
2019-06-26T07:14:34.050Z,57.60
2019-06-26T07:15:39.162Z,58.00
2019-06-26T07:16:44.848Z,58.30
2019-06-26T07:17:49.908Z,58.60
2019-06-26T07:18:55.628Z,58.80
2019-06-26T07:20:00.766Z,58.90
2019-06-26T07:21:06.638Z,59.10
2019-06-26T07:22:11.845Z,59.30
2019-06-26T07:23:17.522Z,59.50
2019-06-26T07:24:22.619Z,59.40
2019-06-26T07:25:28.209Z,59.60
2019-06-26T07:26:33.254Z,59.50
2019-06-26T07:27:38.890Z,59.60
2019-06-26T07:28:43.892Z,59.70
2019-06-26T07:29:49.649Z,59.70
2019-06-26T07:30:54.677Z,59.90
2019-06-26T07:32:00.268Z,60.00
2019-06-26T07:33:05.469Z,60.10
2019-06-26T07:34:11.062Z,60.40
2019-06-26T07:35:16.212Z,60.10
2019-06-26T07:36:21.820Z,60.10
2019-06-26T07:37:26.816Z,60.10
2019-06-26T07:38:32.528Z,60.10
2019-06-26T07:39:37.622Z,60.00
2019-06-26T07:40:43.246Z,60.00
2019-06-26T07:41:48.335Z,59.60
2019-06-26T07:42:54.465Z,59.30
2019-06-26T07:43:59.533Z,59.30
2019-06-26T07:45:05.734Z,59.40
2019-06-26T07:46:10.781Z,59.50
2019-06-26T07:47:23.219Z,59.60
2019-06-26T07:48:23.121Z,59.70
2019-06-26T07:49:28.835Z,59.60
2019-06-26T07:50:33.819Z,59.00
2019-06-26T07:51:39.499Z,59.00
2019-06-26T07:52:44.514Z,59.20
2019-06-26T07:53:50.086Z,59.10
2019-06-26T07:54:55.205Z,58.70
2019-06-26T07:56:00.844Z,58.60
2019-06-26T07:57:06.019Z,58.70
2019-06-26T07:58:11.646Z,59.00
2019-06-26T07:59:16.818Z,59.30
2019-06-26T08:00:22.401Z,59.60
2019-06-26T08:01:27.491Z,59.80
2019-06-26T08:02:33.548Z,60.10
2019-06-26T08:03:38.626Z,60.40
2019-06-26T08:04:44.420Z,60.60
2019-06-26T08:05:49.463Z,60.70
2019-06-26T08:06:55.086Z,60.80
2019-06-26T08:08:00.149Z,60.80
2019-06-26T08:09:07.133Z,60.60
2019-06-26T08:10:12.774Z,60.40
2019-06-26T08:11:18.562Z,60.30
2019-06-26T08:12:23.663Z,60.10
2019-06-26T08:13:29.361Z,60.00
2019-06-26T08:14:34.454Z,60.10
2019-06-26T08:15:40.089Z,60.20
2019-06-26T08:16:45.193Z,60.30
2019-06-26T08:18:00.547Z,60.60
2019-06-26T08:18:57.571Z,60.60
2019-06-26T08:20:03.153Z,60.80
2019-06-26T08:21:12.453Z,60.90
2019-06-26T08:22:15.727Z,61.10
2019-06-26T08:23:20.794Z,60.80
2019-06-26T08:24:26.560Z,60.40
2019-06-26T08:25:31.586Z,60.50
2019-06-26T08:26:37.189Z,60.70
2019-06-26T08:27:42.369Z,60.80
2019-06-26T08:28:47.997Z,60.50
2019-06-26T08:29:53.096Z,60.70
2019-06-26T08:30:59.022Z,60.60
2019-06-26T08:32:04.216Z,60.70
2019-06-26T08:33:09.837Z,60.80
2019-06-26T08:34:15.272Z,60.70
2019-06-26T08:35:21.638Z,60.80
2019-06-26T08:36:27.037Z,61.00
2019-06-26T08:37:33.562Z,60.30
2019-06-26T08:38:39.771Z,59.30
2019-06-26T08:39:57.781Z,58.20
2019-06-26T08:41:06.814Z,57.40
2019-06-26T08:42:23.946Z,57.00
2019-06-26T08:43:31.476Z,57.20
2019-06-26T08:44:36.837Z,57.60
2019-06-26T08:45:41.861Z,58.00
2019-06-26T08:46:47.519Z,58.50
2019-06-26T08:47:52.545Z,59.00
2019-06-26T08:48:58.267Z,59.40
2019-06-26T08:50:03.345Z,59.60
2019-06-26T08:51:10.108Z,59.80
2019-06-26T08:52:15.796Z,60.20
2019-06-26T08:53:21.376Z,60.60
2019-06-26T08:54:26.602Z,61.10
2019-06-26T08:55:32.169Z,61.40
2019-06-26T08:56:37.246Z,61.60
2019-06-26T08:57:42.900Z,61.60
2019-06-26T08:58:47.950Z,61.60
2019-06-26T08:59:53.569Z,61.50
2019-06-26T09:00:58.762Z,61.10
2019-06-26T09:02:04.466Z,61.20
2019-06-26T09:03:09.570Z,61.40
2019-06-26T09:04:15.279Z,61.70
2019-06-26T09:05:20.802Z,62.10
2019-06-26T09:06:26.500Z,62.30
2019-06-26T09:07:31.593Z,62.60
2019-06-26T09:08:37.309Z,63.00
2019-06-26T09:09:42.363Z,63.10
2019-06-26T09:10:47.948Z,63.10
2019-06-26T09:11:54.058Z,63.00
2019-06-26T09:12:59.758Z,62.80
2019-06-26T09:14:06.197Z,62.50
2019-06-26T09:15:12.111Z,62.20
2019-06-26T09:16:17.194Z,62.30
2019-06-26T09:17:22.785Z,62.30
2019-06-26T09:18:35.430Z,62.50
2019-06-26T09:19:35.433Z,62.60
2019-06-26T09:20:40.944Z,62.70
2019-06-26T09:21:46.529Z,62.80
2019-06-26T09:22:51.621Z,62.60
2019-06-26T09:23:57.317Z,62.40
2019-06-26T09:25:19.862Z,62.50
2019-06-26T09:26:09.885Z,61.70
2019-06-26T09:27:15.360Z,61.60
2019-06-26T09:28:21.139Z,61.90
2019-06-26T09:29:26.181Z,61.30
2019-06-26T09:30:31.802Z,61.30
2019-06-26T09:31:36.853Z,60.90
2019-06-26T09:32:42.460Z,59.30
2019-06-26T09:33:47.561Z,58.50
2019-06-26T09:34:53.221Z,57.70
2019-06-26T09:35:58.270Z,57.60
2019-06-26T09:37:03.938Z,56.20
2019-06-26T09:38:09.075Z,56.00
2019-06-26T09:39:14.767Z,56.30
2019-06-26T09:40:19.766Z,56.10
2019-06-26T09:41:25.409Z,55.50
2019-06-26T09:42:30.633Z,55.20
2019-06-26T09:43:36.376Z,55.80
2019-06-26T09:44:41.770Z,55.10
2019-06-26T09:45:47.646Z,55.60
2019-06-26T09:46:52.748Z,56.10
2019-06-26T09:47:58.339Z,55.70
2019-06-26T09:49:04.651Z,55.60
2019-06-26T09:50:11.233Z,55.20
2019-06-26T09:51:16.270Z,55.30
2019-06-26T09:52:22.241Z,55.90
2019-06-26T09:53:27.245Z,56.40
2019-06-26T09:54:32.985Z,57.20
2019-06-26T09:55:38.109Z,56.70
2019-06-26T09:56:43.809Z,56.80
2019-06-26T09:57:48.815Z,55.60
2019-06-26T09:58:54.483Z,55.40
2019-06-26T09:59:59.591Z,55.60
2019-06-26T10:01:05.361Z,55.90
2019-06-26T10:02:10.404Z,55.20
2019-06-26T10:03:16.160Z,54.50
2019-06-26T10:04:21.154Z,53.70
2019-06-26T10:05:26.836Z,54.30
2019-06-26T10:06:31.893Z,54.40
2019-06-26T10:07:37.676Z,54.90
2019-06-26T10:08:42.707Z,54.60
2019-06-26T10:09:48.358Z,54.20
2019-06-26T10:10:53.377Z,53.10
2019-06-26T10:11:58.989Z,52.70
2019-06-26T10:13:04.054Z,52.50
2019-06-26T10:14:09.792Z,53.10
2019-06-26T10:15:15.037Z,53.60
2019-06-26T10:16:20.726Z,54.20
2019-06-26T10:17:25.732Z,54.60
2019-06-26T10:18:31.384Z,54.70
2019-06-26T10:19:36.660Z,55.00
2019-06-26T10:20:42.379Z,55.30
2019-06-26T10:21:47.560Z,54.80
2019-06-26T10:22:53.216Z,53.70
2019-06-26T10:23:58.281Z,52.50
2019-06-26T10:25:03.908Z,51.90
2019-06-26T10:26:08.931Z,51.20
2019-06-26T10:27:14.598Z,50.50
2019-06-26T10:28:20.277Z,50.60
2019-06-26T10:29:25.970Z,50.90
2019-06-26T10:30:31.003Z,51.20
2019-06-26T10:31:36.605Z,51.50
2019-06-26T10:32:41.646Z,51.10
2019-06-26T10:33:47.251Z,50.40
2019-06-26T10:34:52.884Z,50.40
2019-06-26T10:35:58.567Z,50.50
2019-06-26T10:37:03.669Z,50.50
2019-06-26T10:38:09.367Z,50.90
2019-06-26T10:39:14.429Z,51.00
2019-06-26T10:40:20.038Z,51.10
2019-06-26T10:41:25.065Z,51.40
2019-06-26T10:42:30.670Z,51.20
2019-06-26T10:43:35.842Z,51.00
2019-06-26T10:44:41.627Z,50.50
2019-06-26T10:45:46.702Z,50.60
2019-06-26T10:46:52.436Z,50.40
2019-06-26T10:47:57.562Z,50.00
2019-06-26T10:49:03.183Z,49.50
2019-06-26T10:50:08.191Z,48.90
2019-06-26T10:51:13.975Z,48.20
2019-06-26T10:52:19.049Z,48.20
2019-06-26T10:53:24.699Z,47.70
2019-06-26T10:54:30.809Z,47.60
2019-06-26T10:55:36.467Z,47.80
2019-06-26T10:56:41.586Z,47.90
2019-06-26T10:57:47.235Z,47.50
2019-06-26T10:58:53.304Z,47.50
2019-06-26T10:59:58.901Z,47.30
2019-06-26T11:01:03.980Z,47.20
2019-06-26T11:02:10.361Z,47.00
2019-06-26T11:03:15.499Z,46.60
2019-06-26T11:04:21.108Z,45.60
2019-06-26T11:05:26.135Z,45.10
2019-06-26T11:06:31.833Z,44.50
2019-06-26T11:07:36.900Z,44.10
2019-06-26T11:08:42.562Z,43.90
2019-06-26T11:09:47.664Z,43.20
2019-06-26T11:10:53.371Z,42.70
2019-06-26T11:11:58.466Z,42.10
2019-06-26T11:13:04.147Z,41.50
2019-06-26T11:14:10.258Z,41.10
2019-06-26T11:15:16.061Z,40.80
2019-06-26T11:16:21.257Z,40.40
2019-06-26T11:17:26.994Z,40.00
2019-06-26T11:18:32.011Z,39.90
2019-06-26T11:19:43.640Z,39.60
2019-06-26T11:20:44.402Z,39.30
2019-06-26T11:21:50.226Z,39.10
2019-06-26T11:22:55.274Z,39.00
2019-06-26T11:24:00.874Z,38.90
2019-06-26T11:25:06.828Z,38.50
2019-06-26T11:26:12.483Z,38.40
2019-06-26T11:27:17.533Z,38.40
2019-06-26T11:28:23.433Z,38.40
2019-06-26T11:29:28.784Z,38.30
2019-06-26T11:30:36.108Z,38.20
2019-06-26T11:31:41.186Z,38.10
2019-06-26T11:32:46.889Z,38.10
2019-06-26T11:33:51.937Z,38.00
2019-06-26T11:34:57.545Z,38.00
2019-06-26T11:36:02.554Z,38.00
2019-06-26T11:37:08.217Z,38.00
2019-06-26T11:38:13.289Z,37.90
2019-06-26T11:39:18.883Z,37.80
2019-06-26T11:40:23.925Z,37.80
2019-06-26T11:41:29.587Z,37.70
2019-06-26T11:42:34.727Z,37.50
2019-06-26T11:43:41.434Z,37.40
2019-06-26T11:44:46.521Z,37.50
2019-06-26T11:45:52.212Z,37.50
2019-06-26T11:46:57.797Z,37.50
2019-06-26T11:48:03.526Z,37.40
2019-06-26T11:49:08.672Z,37.30
2019-06-26T11:50:14.905Z,37.40
2019-06-26T11:51:20.015Z,37.40
2019-06-26T11:52:25.650Z,37.30
2019-06-26T11:53:30.753Z,37.10
2019-06-26T11:54:36.461Z,37.00
2019-06-26T11:55:41.589Z,37.00
2019-06-26T11:56:47.281Z,36.90
2019-06-26T11:57:52.436Z,36.90
2019-06-26T11:58:58.044Z,36.80
2019-06-26T12:00:03.198Z,36.80
2019-06-26T12:01:08.887Z,36.80
2019-06-26T12:02:14.065Z,36.80
2019-06-26T12:03:19.782Z,36.70
2019-06-26T12:04:24.880Z,36.50
2019-06-26T12:05:30.501Z,36.40
2019-06-26T12:06:35.584Z,36.40
2019-06-26T12:07:41.285Z,36.50
2019-06-26T12:08:46.327Z,36.40
2019-06-26T12:09:51.986Z,36.30
2019-06-26T12:10:57.108Z,36.40
2019-06-26T12:12:02.784Z,36.50
2019-06-26T12:13:07.885Z,36.50
2019-06-26T12:14:13.519Z,36.50
2019-06-26T12:15:19.773Z,36.50
2019-06-26T12:16:25.439Z,36.60
2019-06-26T12:17:30.570Z,36.60
2019-06-26T12:18:36.273Z,36.70
2019-06-26T12:19:41.382Z,36.70
2019-06-26T12:20:46.961Z,36.70
2019-06-26T12:21:52.386Z,36.70
2019-06-26T12:22:58.125Z,36.70
2019-06-26T12:24:03.293Z,36.70
2019-06-26T12:25:08.870Z,36.70
2019-06-26T12:26:14.972Z,36.70
2019-06-26T12:27:20.681Z,36.80
2019-06-26T12:28:25.774Z,36.90
2019-06-26T12:29:32.968Z,36.90
2019-06-26T12:30:38.453Z,37.00
2019-06-26T12:31:44.055Z,37.00
2019-06-26T12:33:02.123Z,37.10
2019-06-26T12:33:56.599Z,37.10
2019-06-26T12:35:02.042Z,37.20
2019-06-26T12:36:07.785Z,37.20
2019-06-26T12:37:13.092Z,37.20
2019-06-26T12:38:18.705Z,37.30
2019-06-26T12:39:23.895Z,37.20
2019-06-26T12:40:31.344Z,37.30
2019-06-26T12:41:36.206Z,37.30
2019-06-26T12:42:41.804Z,37.10
2019-06-26T12:43:46.909Z,37.10
2019-06-26T12:44:52.606Z,37.10
2019-06-26T12:45:57.836Z,37.00
2019-06-26T12:47:03.525Z,37.00
2019-06-26T12:48:08.556Z,36.90
2019-06-26T12:49:14.177Z,36.90
2019-06-26T12:50:34.745Z,37.00
2019-06-26T12:51:29.984Z,37.00
2019-06-26T12:52:35.038Z,36.90
2019-06-26T12:53:40.700Z,36.90
2019-06-26T12:54:45.864Z,36.90
2019-06-26T12:55:51.555Z,36.90
2019-06-26T12:56:56.675Z,36.90
2019-06-26T12:58:12.545Z,36.80
2019-06-26T12:59:09.109Z,36.80
2019-06-26T13:00:15.553Z,36.80
2019-06-26T13:01:20.796Z,36.90
2019-06-26T13:02:26.495Z,36.90
2019-06-26T13:03:31.648Z,36.90
2019-06-26T13:04:37.388Z,36.90
2019-06-26T13:05:42.698Z,36.70
2019-06-26T13:06:49.425Z,36.70
2019-06-26T13:07:54.422Z,36.70
2019-06-26T13:09:00.020Z,36.70
2019-06-26T13:10:07.578Z,36.80
2019-06-26T13:11:12.681Z,36.90
2019-06-26T13:12:17.695Z,36.90
2019-06-26T13:13:23.328Z,36.90
2019-06-26T13:14:29.339Z,36.90
2019-06-26T13:15:34.931Z,36.80
2019-06-26T13:16:40.133Z,36.80
2019-06-26T13:17:45.826Z,36.90
2019-06-26T13:18:50.914Z,37.00
2019-06-26T13:19:56.599Z,37.10
2019-06-26T13:21:05.077Z,37.20
2019-06-26T13:22:09.073Z,37.30
2019-06-26T13:23:14.979Z,37.30
2019-06-26T13:24:20.707Z,37.30
2019-06-26T13:25:25.828Z,37.30
2019-06-26T13:26:31.474Z,37.40
2019-06-26T13:27:36.607Z,37.40
2019-06-26T13:28:42.231Z,37.50
2019-06-26T13:29:47.302Z,37.40
2019-06-26T13:30:53.491Z,37.40
2019-06-26T13:31:58.849Z,37.50
2019-06-26T13:33:04.529Z,37.50
2019-06-26T13:34:09.829Z,37.60
2019-06-26T13:35:15.616Z,37.60
2019-06-26T13:36:20.712Z,37.50
2019-06-26T13:37:26.389Z,37.50
2019-06-26T13:38:32.617Z,37.50
2019-06-26T13:39:38.294Z,37.60
2019-06-26T13:40:43.448Z,37.60
2019-06-26T13:41:49.062Z,37.60
2019-06-26T13:42:54.188Z,37.60
2019-06-26T13:44:00.086Z,37.60
2019-06-26T13:45:06.052Z,37.70
2019-06-26T13:46:11.666Z,37.70
2019-06-26T13:47:16.689Z,37.70
2019-06-26T13:48:22.405Z,37.60
2019-06-26T13:49:27.486Z,37.60
2019-06-26T13:50:33.157Z,37.60
2019-06-26T13:51:38.702Z,37.60
2019-06-26T13:52:44.464Z,37.60
2019-06-26T13:53:49.618Z,37.60
2019-06-26T13:54:57.333Z,37.60
2019-06-26T13:56:02.108Z,37.60
2019-06-26T13:57:07.716Z,37.60
2019-06-26T13:58:12.793Z,37.60
2019-06-26T13:59:18.480Z,37.70
2019-06-26T14:00:23.694Z,37.70
2019-06-26T14:01:29.372Z,37.70
2019-06-26T14:02:35.541Z,37.60
2019-06-26T14:03:42.279Z,37.40
2019-06-26T14:04:47.334Z,37.40
2019-06-26T14:05:53.032Z,37.30
2019-06-26T14:06:58.117Z,37.40
2019-06-26T14:08:03.715Z,37.50
2019-06-26T14:09:08.915Z,37.50
2019-06-26T14:10:15.028Z,37.50
2019-06-26T14:11:20.273Z,37.60
2019-06-26T14:12:26.014Z,37.70
2019-06-26T14:13:31.153Z,37.70
2019-06-26T14:14:52.549Z,37.80
2019-06-26T14:15:43.464Z,37.90
2019-06-26T14:16:49.165Z,37.90
2019-06-26T14:17:54.284Z,37.90
2019-06-26T14:18:59.955Z,37.80
2019-06-26T14:20:05.192Z,37.80
2019-06-26T14:21:24.482Z,37.80
2019-06-26T14:22:17.564Z,37.80
2019-06-26T14:23:23.349Z,37.80
2019-06-26T14:24:28.471Z,37.80
2019-06-26T14:25:34.226Z,37.70
2019-06-26T14:26:39.297Z,37.60
2019-06-26T14:27:44.992Z,37.60
2019-06-26T14:28:53.012Z,37.60
2019-06-26T14:29:57.606Z,37.70
2019-06-26T14:31:02.897Z,37.70
2019-06-26T14:32:08.501Z,37.80
2019-06-26T14:33:13.591Z,37.80
2019-06-26T14:34:19.266Z,37.80
2019-06-26T14:35:24.415Z,37.80
2019-06-26T14:36:30.065Z,37.80
2019-06-26T14:37:35.067Z,37.90
2019-06-26T14:38:40.857Z,37.90
2019-06-26T14:39:45.972Z,37.90
2019-06-26T14:40:51.582Z,37.80
2019-06-26T14:41:56.961Z,37.80
2019-06-26T14:43:02.548Z,37.80
2019-06-26T14:44:07.582Z,37.80
2019-06-26T14:45:13.574Z,37.70
2019-06-26T14:46:18.672Z,37.70
2019-06-26T14:47:25.357Z,37.70
2019-06-26T14:48:30.502Z,37.60
2019-06-26T14:49:36.059Z,37.60
2019-06-26T14:50:41.079Z,37.70
2019-06-26T14:51:47.861Z,37.70
2019-06-26T14:52:53.168Z,37.70
2019-06-26T14:53:58.857Z,37.70
2019-06-26T14:55:04.070Z,37.70
2019-06-26T14:56:09.672Z,37.80
2019-06-26T14:57:14.788Z,37.70
2019-06-26T14:58:20.494Z,37.80
2019-06-26T14:59:25.592Z,37.90
2019-06-26T15:00:31.252Z,37.80
2019-06-26T15:01:36.257Z,37.80
2019-06-26T15:02:42.846Z,37.80
2019-06-26T15:03:47.916Z,37.80
2019-06-26T15:04:53.608Z,37.80
2019-06-26T15:06:12.283Z,37.80
2019-06-26T15:07:05.876Z,37.80
2019-06-26T15:08:10.914Z,37.90
2019-06-26T15:09:16.516Z,37.90
2019-06-26T15:10:21.796Z,37.80
2019-06-26T15:11:27.464Z,37.80
2019-06-26T15:12:32.593Z,37.80
2019-06-26T15:13:38.288Z,37.70
2019-06-26T15:14:43.296Z,37.70
2019-06-26T15:15:48.970Z,37.80
2019-06-26T15:16:55.043Z,37.80
2019-06-26T15:18:00.643Z,37.90
2019-06-26T15:19:05.753Z,37.90
2019-06-26T15:20:11.530Z,37.90
2019-06-26T15:21:16.685Z,37.90
2019-06-26T15:22:22.363Z,37.80
2019-06-26T15:23:27.394Z,37.60
2019-06-26T15:24:33.008Z,37.50
2019-06-26T15:25:38.268Z,37.40
2019-06-26T15:26:43.846Z,37.30
2019-06-26T15:27:49.006Z,37.30
2019-06-26T15:28:54.668Z,37.30
2019-06-26T15:29:59.980Z,37.30
2019-06-26T15:31:05.635Z,37.30
2019-06-26T15:32:10.687Z,37.30
2019-06-26T15:33:16.336Z,37.40
2019-06-26T15:34:21.437Z,37.40
2019-06-26T15:35:27.141Z,37.40
2019-06-26T15:36:32.225Z,37.40
2019-06-26T15:37:37.951Z,37.30
2019-06-26T15:38:43.016Z,37.20
2019-06-26T15:39:48.585Z,37.10
2019-06-26T15:40:54.677Z,37.00
2019-06-26T15:42:00.692Z,36.90
2019-06-26T15:43:05.892Z,36.90
2019-06-26T15:44:11.562Z,36.90
2019-06-26T15:45:20.418Z,37.00
2019-06-26T15:46:24.203Z,37.00
2019-06-26T15:47:29.234Z,37.00
2019-06-26T15:48:34.923Z,37.00
2019-06-26T15:49:39.985Z,37.00
2019-06-26T15:50:45.669Z,37.10
2019-06-26T15:51:50.844Z,37.10
2019-06-26T15:52:56.417Z,37.10
2019-06-26T15:54:01.453Z,37.10
2019-06-26T15:55:07.265Z,37.10
2019-06-26T15:56:12.398Z,37.10
2019-06-26T15:57:17.993Z,37.10
2019-06-26T15:58:23.101Z,36.90
2019-06-26T15:59:31.002Z,36.80
2019-06-26T16:00:35.521Z,36.80
2019-06-26T16:01:41.320Z,36.70
2019-06-26T16:02:46.414Z,36.80
2019-06-26T16:03:52.022Z,36.70
2019-06-26T16:04:57.146Z,36.60
2019-06-26T16:06:02.766Z,36.60
2019-06-26T16:07:07.921Z,36.70
2019-06-26T16:08:13.649Z,36.60
2019-06-26T16:09:18.702Z,36.60
2019-06-26T16:10:24.352Z,36.50
2019-06-26T16:11:29.433Z,36.30
2019-06-26T16:12:35.032Z,36.20
2019-06-26T16:13:40.100Z,36.20
2019-06-26T16:14:45.811Z,36.10
2019-06-26T16:15:50.939Z,36.00
2019-06-26T16:16:58.924Z,35.90
2019-06-26T16:18:18.141Z,36.00
2019-06-26T16:19:24.030Z,36.10
2019-06-26T16:20:29.128Z,36.00
2019-06-26T16:21:34.774Z,35.90
2019-06-26T16:22:39.858Z,35.90
2019-06-26T16:23:46.594Z,35.80
2019-06-26T16:24:51.714Z,35.80
2019-06-26T16:25:57.389Z,35.70
2019-06-26T16:27:02.428Z,35.60
2019-06-26T16:28:08.024Z,35.60
2019-06-26T16:29:13.141Z,35.60
2019-06-26T16:30:18.940Z,35.60
2019-06-26T16:31:24.022Z,35.50
2019-06-26T16:32:29.686Z,35.50
2019-06-26T16:33:34.845Z,35.60
2019-06-26T16:34:40.548Z,35.60
2019-06-26T16:35:45.636Z,35.60
2019-06-26T16:36:51.299Z,35.60
2019-06-26T16:37:56.405Z,35.70
2019-06-26T16:39:03.145Z,35.60
2019-06-26T16:40:09.311Z,35.60
2019-06-26T16:41:14.954Z,35.60
2019-06-26T16:42:20.017Z,35.50
2019-06-26T16:43:25.716Z,35.50
2019-06-26T16:44:30.823Z,35.40
2019-06-26T16:45:36.551Z,35.40
2019-06-26T16:46:44.388Z,35.50
2019-06-26T16:47:50.067Z,35.40
2019-06-26T16:48:55.079Z,35.50
2019-06-26T16:50:00.694Z,35.50
2019-06-26T16:51:05.804Z,35.50
2019-06-26T16:52:11.650Z,35.40
2019-06-26T16:53:16.800Z,35.50
2019-06-26T16:54:23.643Z,35.50
2019-06-26T16:55:28.794Z,35.50
2019-06-26T16:56:34.490Z,35.50
2019-06-26T16:57:40.622Z,35.40
2019-06-26T16:58:46.221Z,35.40
2019-06-26T16:59:51.224Z,35.50
2019-06-26T17:00:56.976Z,35.40
2019-06-26T17:02:02.072Z,35.40
2019-06-26T17:03:07.767Z,35.50
2019-06-26T17:04:13.129Z,35.50
2019-06-26T17:05:18.891Z,35.40
2019-06-26T17:06:23.999Z,35.50
2019-06-26T17:07:30.682Z,35.40
2019-06-26T17:08:35.768Z,35.40
2019-06-26T17:09:44.363Z,35.40
2019-06-26T17:10:48.213Z,35.30
2019-06-26T17:11:53.926Z,35.30
2019-06-26T17:12:59.085Z,35.40
2019-06-26T17:14:05.177Z,35.30
2019-06-26T17:15:10.778Z,35.20
2019-06-26T17:16:16.428Z,35.20
2019-06-26T17:17:21.519Z,35.20
2019-06-26T17:18:28.333Z,35.20
2019-06-26T17:19:33.417Z,35.20
2019-06-26T17:20:39.018Z,35.10
2019-06-26T17:21:44.497Z,35.10
2019-06-26T17:23:04.444Z,35.10
2019-06-26T17:23:57.009Z,35.00
2019-06-26T17:25:02.695Z,35.00
2019-06-26T17:26:07.836Z,34.90
2019-06-26T17:27:13.453Z,34.90
2019-06-26T17:28:18.557Z,34.90
2019-06-26T17:29:24.269Z,34.90
2019-06-26T17:30:29.359Z,34.90
2019-06-26T17:31:34.978Z,34.80
2019-06-26T17:32:40.004Z,34.70
2019-06-26T17:33:45.601Z,34.70
2019-06-26T17:34:52.494Z,34.70
2019-06-26T17:35:58.165Z,34.70
2019-06-26T17:37:03.200Z,34.70
2019-06-26T17:38:08.853Z,34.70
2019-06-26T17:39:13.918Z,34.70
2019-06-26T17:40:19.587Z,34.70
2019-06-26T17:41:24.742Z,34.70
2019-06-26T17:42:30.501Z,34.70
2019-06-26T17:43:35.602Z,34.70
2019-06-26T17:44:41.206Z,34.70
2019-06-26T17:45:46.289Z,34.60
2019-06-26T17:46:51.892Z,34.60
2019-06-26T17:47:56.907Z,34.60
2019-06-26T17:49:02.937Z,34.60
2019-06-26T17:50:08.977Z,34.60
2019-06-26T17:51:15.152Z,34.60
2019-06-26T17:52:20.282Z,34.50
2019-06-26T17:53:26.016Z,34.50
2019-06-26T17:54:31.058Z,34.50
2019-06-26T17:55:36.759Z,34.50
2019-06-26T17:56:41.838Z,34.40
2019-06-26T17:57:47.785Z,34.30
2019-06-26T17:58:53.036Z,34.30
2019-06-26T17:59:58.701Z,34.30
2019-06-26T18:01:03.888Z,34.40
2019-06-26T18:02:09.586Z,34.40
2019-06-26T18:03:14.692Z,34.40
2019-06-26T18:04:20.290Z,34.40
2019-06-26T18:05:25.331Z,34.40